sensor_id;sensor_type;location;lat;lon;timestamp;pressure;altitude;pressure_sealevel;temperature;humidity
11212;BME280;5663;50.864;12.096;2023-03-01T00:01:14;100697.94;;;-1.14;66.59
11212;BME280;5663;50.864;12.096;2023-03-01T00:03:45;100710.84;;;-1.07;66.42
11212;BME280;5663;50.864;12.096;2023-03-01T00:06:13;100704.88;;;-1.07;66.54
11212;BME280;5663;50.864;12.096;2023-03-01T00:08:41;100707.31;;;-1.12;66.46
11212;BME280;5663;50.864;12.096;2023-03-01T00:11:12;100721.06;;;-1.07;66.49
11212;BME280;5663;50.864;12.096;2023-03-01T00:13:43;100677.31;;;-1.25;66.55
11212;BME280;5663;50.864;12.096;2023-03-01T00:16:13;100683.22;;;-1.29;66.40
11212;BME280;5663;50.864;12.096;2023-03-01T00:18:41;100663.59;;;-1.32;66.50
11212;BME280;5663;50.864;12.096;2023-03-01T00:21:09;100699.72;;;-1.10;66.26
11212;BME280;5663;50.864;12.096;2023-03-01T00:23:37;100686.91;;;-1.12;66.43
11212;BME280;5663;50.864;12.096;2023-03-01T00:26:07;100663.69;;;-1.27;66.38
11212;BME280;5663;50.864;12.096;2023-03-01T00:28:36;100683.41;;;-1.17;66.88
11212;BME280;5663;50.864;12.096;2023-03-01T00:31:09;100680.78;;;-1.21;66.72
11212;BME280;5663;50.864;12.096;2023-03-01T00:33:38;100689.31;;;-1.21;66.47
11212;BME280;5663;50.864;12.096;2023-03-01T00:36:06;100676.38;;;-1.30;66.72
11212;BME280;5663;50.864;12.096;2023-03-01T00:38:35;100687.44;;;-1.30;66.57
11212;BME280;5663;50.864;12.096;2023-03-01T00:41:04;100695.88;;;-1.34;66.37
11212;BME280;5663;50.864;12.096;2023-03-01T00:43:32;100688.16;;;-1.38;66.72
11212;BME280;5663;50.864;12.096;2023-03-01T00:46:02;100677.78;;;-1.47;66.79
11212;BME280;5663;50.864;12.096;2023-03-01T00:48:32;100685.44;;;-1.46;66.98
11212;BME280;5663;50.864;12.096;2023-03-01T00:51:05;100622.69;;;-1.83;66.68
11212;BME280;5663;50.864;12.096;2023-03-01T00:53:33;100683.66;;;-1.52;66.70
11212;BME280;5663;50.864;12.096;2023-03-01T00:56:01;100681.81;;;-1.59;66.61
11212;BME280;5663;50.864;12.096;2023-03-01T00:58:29;100686.84;;;-1.60;66.46
11212;BME280;5663;50.864;12.096;2023-03-01T01:00:57;100636.00;;;-1.96;66.52
11212;BME280;5663;50.864;12.096;2023-03-01T01:03:25;100679.88;;;-1.70;66.71
11212;BME280;5663;50.864;12.096;2023-03-01T01:05:55;100676.41;;;-1.74;66.73
11212;BME280;5663;50.864;12.096;2023-03-01T01:12:13;100681.31;;;-1.83;66.75
11212;BME280;5663;50.864;12.096;2023-03-01T01:14:41;100681.25;;;-1.86;66.56
11212;BME280;5663;50.864;12.096;2023-03-01T01:17:09;100671.91;;;-1.87;66.65
11212;BME280;5663;50.864;12.096;2023-03-01T01:19:38;100672.66;;;-1.91;66.59
11212;BME280;5663;50.864;12.096;2023-03-01T01:22:07;100664.94;;;-1.94;66.72
11212;BME280;5663;50.864;12.096;2023-03-01T01:24:35;100663.22;;;-1.95;66.78
11212;BME280;5663;50.864;12.096;2023-03-01T01:27:03;100659.78;;;-1.98;66.97
11212;BME280;5663;50.864;12.096;2023-03-01T01:29:30;100650.25;;;-2.06;66.77
11212;BME280;5663;50.864;12.096;2023-03-01T01:31:59;100653.75;;;-2.01;66.88
11212;BME280;5663;50.864;12.096;2023-03-01T01:34:27;100640.91;;;-2.06;67.01
11212;BME280;5663;50.864;12.096;2023-03-01T01:36:56;100628.88;;;-2.13;66.98
11212;BME280;5663;50.864;12.096;2023-03-01T01:42:54;100620.28;;;-2.18;66.89
11212;BME280;5663;50.864;12.096;2023-03-01T01:45:31;100626.16;;;-2.20;66.85
11212;BME280;5663;50.864;12.096;2023-03-01T01:48:04;100602.97;;;-2.34;66.70
11212;BME280;5663;50.864;12.096;2023-03-01T01:50:35;100609.91;;;-2.27;66.81
11212;BME280;5663;50.864;12.096;2023-03-01T01:53:09;100607.22;;;-2.32;66.73
11212;BME280;5663;50.864;12.096;2023-03-01T01:55:42;100613.16;;;-2.34;66.87
11212;BME280;5663;50.864;12.096;2023-03-01T01:58:15;100612.13;;;-2.42;66.76
11212;BME280;5663;50.864;12.096;2023-03-01T02:00:46;100615.63;;;-2.37;66.72
11212;BME280;5663;50.864;12.096;2023-03-01T02:03:18;100612.19;;;-2.39;66.65
11212;BME280;5663;50.864;12.096;2023-03-01T02:05:51;100611.28;;;-2.41;66.67
11212;BME280;5663;50.864;12.096;2023-03-01T02:08:25;100618.91;;;-2.43;66.60
11212;BME280;5663;50.864;12.096;2023-03-01T02:10:54;100611.09;;;-2.51;66.81
11212;BME280;5663;50.864;12.096;2023-03-01T02:13:24;100616.19;;;-2.51;66.89
11212;BME280;5663;50.864;12.096;2023-03-01T02:15:52;100613.56;;;-2.54;66.93
11212;BME280;5663;50.864;12.096;2023-03-01T02:18:21;100608.41;;;-2.57;66.94
11212;BME280;5663;50.864;12.096;2023-03-01T02:21:06;100580.91;;;-2.72;66.97
11212;BME280;5663;50.864;12.096;2023-03-01T02:23:36;100566.28;;;-2.80;67.00
11212;BME280;5663;50.864;12.096;2023-03-01T02:26:08;100606.59;;;-2.62;66.79
11212;BME280;5663;50.864;12.096;2023-03-01T02:28:41;100599.72;;;-2.65;66.60
11212;BME280;5663;50.864;12.096;2023-03-01T02:31:11;100594.53;;;-2.69;66.53
11212;BME280;5663;50.864;12.096;2023-03-01T02:33:59;100607.25;;;-2.71;66.61
11212;BME280;5663;50.864;12.096;2023-03-01T02:36:33;100597.84;;;-2.74;66.62
11212;BME280;5663;50.864;12.096;2023-03-01T02:39:05;100602.09;;;-2.74;66.52
11212;BME280;5663;50.864;12.096;2023-03-01T02:41:35;100589.94;;;-2.84;66.74
11212;BME280;5663;50.864;12.096;2023-03-01T02:44:05;100590.78;;;-2.85;66.69
11212;BME280;5663;50.864;12.096;2023-03-01T02:46:42;100462.56;;;-3.66;66.71
11212;BME280;5663;50.864;12.096;2023-03-01T02:49:21;100600.97;;;-2.85;66.67
11212;BME280;5663;50.864;12.096;2023-03-01T02:52:00;100604.28;;;-2.88;66.71
11212;BME280;5663;50.864;12.096;2023-03-01T02:54:38;100605.97;;;-2.90;66.67
11212;BME280;5663;50.864;12.096;2023-03-01T02:57:07;100610.19;;;-2.90;66.55
11212;BME280;5663;50.864;12.096;2023-03-01T02:59:37;100607.59;;;-2.92;66.60
11212;BME280;5663;50.864;12.096;2023-03-01T03:02:07;100610.13;;;-2.93;66.52
11212;BME280;5663;50.864;12.096;2023-03-01T03:04:34;100607.47;;;-2.98;66.53
11212;BME280;5663;50.864;12.096;2023-03-01T03:07:02;100615.97;;;-2.96;66.77
11212;BME280;5663;50.864;12.096;2023-03-01T03:09:30;100607.47;;;-2.98;66.54
11212;BME280;5663;50.864;12.096;2023-03-01T03:11:58;100605.75;;;-2.99;66.64
11212;BME280;5663;50.864;12.096;2023-03-01T03:14:25;100595.50;;;-3.01;66.77
11212;BME280;5663;50.864;12.096;2023-03-01T03:16:57;100584.38;;;-3.06;66.80
11212;BME280;5663;50.864;12.096;2023-03-01T03:19:25;100589.50;;;-3.04;66.38
11212;BME280;5663;50.864;12.096;2023-03-01T03:21:52;100589.38;;;-3.09;66.61
11212;BME280;5663;50.864;12.096;2023-03-01T03:24:20;100590.13;;;-3.13;66.78
11212;BME280;5663;50.864;12.096;2023-03-01T03:26:50;100585.03;;;-3.13;66.83
11212;BME280;5663;50.864;12.096;2023-03-01T03:29:17;100572.13;;;-3.22;66.64
11212;BME280;5663;50.864;12.096;2023-03-01T03:31:47;100591.66;;;-3.19;66.82
11212;BME280;5663;50.864;12.096;2023-03-01T03:34:17;100594.25;;;-3.18;66.72
11212;BME280;5663;50.864;12.096;2023-03-01T03:36:44;100589.94;;;-3.20;66.69
11212;BME280;5663;50.864;12.096;2023-03-01T03:39:12;100591.63;;;-3.21;66.75
11212;BME280;5663;50.864;12.096;2023-03-01T03:41:40;100585.66;;;-3.23;66.84
11212;BME280;5663;50.864;12.096;2023-03-01T03:44:08;100576.34;;;-3.23;66.82
11212;BME280;5663;50.864;12.096;2023-03-01T03:46:36;100580.59;;;-3.23;66.68
11212;BME280;5663;50.864;12.096;2023-03-01T03:49:04;100574.56;;;-3.25;66.59
11212;BME280;5663;50.864;12.096;2023-03-01T03:51:33;100577.84;;;-3.31;66.69
11212;BME280;5663;50.864;12.096;2023-03-01T03:54:01;100565.06;;;-3.32;66.67
11212;BME280;5663;50.864;12.096;2023-03-01T03:56:28;100566.75;;;-3.34;66.77
11212;BME280;5663;50.864;12.096;2023-03-01T03:58:56;100551.19;;;-3.45;66.86
11212;BME280;5663;50.864;12.096;2023-03-01T04:01:25;100567.41;;;-3.41;66.95
11212;BME280;5663;50.864;12.096;2023-03-01T04:03:52;100562.28;;;-3.43;66.74
11212;BME280;5663;50.864;12.096;2023-03-01T04:06:22;100568.28;;;-3.39;66.91
11212;BME280;5663;50.864;12.096;2023-03-01T04:08:51;100570.81;;;-3.41;66.92
11212;BME280;5663;50.864;12.096;2023-03-01T04:11:24;100565.69;;;-3.42;66.46
11212;BME280;5663;50.864;12.096;2023-03-01T04:13:57;100550.19;;;-3.52;66.67
11212;BME280;5663;50.864;12.096;2023-03-01T04:16:27;100563.16;;;-3.42;66.67
11212;BME280;5663;50.864;12.096;2023-03-01T04:18:55;100567.28;;;-3.46;66.77
11212;BME280;5663;50.864;12.096;2023-03-01T04:21:25;100527.72;;;-3.69;66.66
11212;BME280;5663;50.864;12.096;2023-03-01T04:23:55;100529.53;;;-3.64;66.64
11212;BME280;5663;50.864;12.096;2023-03-01T04:26:23;100552.81;;;-3.49;66.74
11212;BME280;5663;50.864;12.096;2023-03-01T04:28:50;100554.47;;;-3.51;66.78
11212;BME280;5663;50.864;12.096;2023-03-01T04:31:19;100552.69;;;-3.53;66.60
11212;BME280;5663;50.864;12.096;2023-03-01T04:33:49;100551.00;;;-3.54;66.23
11212;BME280;5663;50.864;12.096;2023-03-01T04:36:20;100553.44;;;-3.57;66.64
11212;BME280;5663;50.864;12.096;2023-03-01T04:38:48;100550.88;;;-3.59;66.48
11212;BME280;5663;50.864;12.096;2023-03-01T04:41:19;100555.97;;;-3.59;66.31
11212;BME280;5663;50.864;12.096;2023-03-01T04:43:47;100560.22;;;-3.58;66.50
11212;BME280;5663;50.864;12.096;2023-03-01T04:46:18;100543.91;;;-3.66;66.63
11212;BME280;5663;50.864;12.096;2023-03-01T04:48:46;100555.03;;;-3.62;66.45
11212;BME280;5663;50.864;12.096;2023-03-01T04:51:14;100554.91;;;-3.67;66.40
11212;BME280;5663;50.864;12.096;2023-03-01T04:53:43;100552.38;;;-3.67;66.46
11212;BME280;5663;50.864;12.096;2023-03-01T04:56:12;100508.50;;;-3.91;66.72
11212;BME280;5663;50.864;12.096;2023-03-01T04:58:42;100547.09;;;-3.73;66.45
11212;BME280;5663;50.864;12.096;2023-03-01T05:01:11;100542.75;;;-3.77;66.35
11212;BME280;5663;50.864;12.096;2023-03-01T05:03:42;100552.28;;;-3.70;66.46
11212;BME280;5663;50.864;12.096;2023-03-01T05:06:10;100547.19;;;-3.70;66.66
11212;BME280;5663;50.864;12.096;2023-03-01T05:08:39;100548.00;;;-3.71;66.20
11212;BME280;5663;50.864;12.096;2023-03-01T05:11:08;100540.38;;;-3.71;66.34
11212;BME280;5663;50.864;12.096;2023-03-01T05:13:36;100543.75;;;-3.72;66.58
11212;BME280;5663;50.864;12.096;2023-03-01T05:16:07;100536.03;;;-3.75;66.27
11212;BME280;5663;50.864;12.096;2023-03-01T05:18:39;100542.75;;;-3.77;66.47
11212;BME280;5663;50.864;12.096;2023-03-01T05:21:11;100536.72;;;-3.82;66.24
11212;BME280;5663;50.864;12.096;2023-03-01T05:23:39;100541.00;;;-3.80;66.61
11212;BME280;5663;50.864;12.096;2023-03-01T05:26:07;100535.84;;;-3.83;66.64
11212;BME280;5663;50.864;12.096;2023-03-01T05:28:36;100535.81;;;-3.84;66.53
11212;BME280;5663;50.864;12.096;2023-03-01T05:31:06;100540.03;;;-3.85;66.28
11212;BME280;5663;50.864;12.096;2023-03-01T05:33:36;100524.34;;;-4.02;66.27
11212;BME280;5663;50.864;12.096;2023-03-01T05:36:06;100550.16;;;-3.86;66.45
11212;BME280;5663;50.864;12.096;2023-03-01T05:38:34;100545.03;;;-3.88;66.45
11212;BME280;5663;50.864;12.096;2023-03-01T05:41:02;100525.91;;;-4.07;66.60
11212;BME280;5663;50.864;12.096;2023-03-01T05:43:30;100539.81;;;-3.92;66.45
11212;BME280;5663;50.864;12.096;2023-03-01T05:46:00;100557.66;;;-3.91;66.41
11212;BME280;5663;50.864;12.096;2023-03-01T05:48:29;100560.16;;;-3.92;66.32
11212;BME280;5663;50.864;12.096;2023-03-01T05:50:59;100553.13;;;-4.03;66.48
11212;BME280;5663;50.864;12.096;2023-03-01T05:53:27;100547.84;;;-4.09;66.37
11212;BME280;5663;50.864;12.096;2023-03-01T05:55:55;100560.78;;;-4.00;66.23
11212;BME280;5663;50.864;12.096;2023-03-01T05:58:22;100570.16;;;-3.99;66.29
11212;BME280;5663;50.864;12.096;2023-03-01T06:00:50;100564.91;;;-4.05;66.11
11212;BME280;5663;50.864;12.096;2023-03-01T06:03:18;100565.00;;;-4.02;66.19
11212;BME280;5663;50.864;12.096;2023-03-01T06:05:47;100555.50;;;-4.07;66.45
11212;BME280;5663;50.864;12.096;2023-03-01T06:08:15;100560.75;;;-4.03;66.24
11212;BME280;5663;50.864;12.096;2023-03-01T06:10:43;100563.34;;;-4.00;65.98
11212;BME280;5663;50.864;12.096;2023-03-01T06:13:11;100559.81;;;-4.05;66.48
11212;BME280;5663;50.864;12.096;2023-03-01T06:15:39;100562.38;;;-4.03;66.30
11212;BME280;5663;50.864;12.096;2023-03-01T06:18:07;100563.28;;;-4.03;66.56
11212;BME280;5663;50.864;12.096;2023-03-01T06:20:34;100560.75;;;-4.01;66.46
11212;BME280;5663;50.864;12.096;2023-03-01T06:23:03;100561.63;;;-4.01;66.40
11212;BME280;5663;50.864;12.096;2023-03-01T06:25:31;100553.13;;;-4.03;66.27
11212;BME280;5663;50.864;12.096;2023-03-01T06:27:59;100563.34;;;-4.00;66.15
11212;BME280;5663;50.864;12.096;2023-03-01T06:30:27;100565.09;;;-3.99;66.59
11212;BME280;5663;50.864;12.096;2023-03-01T06:32:56;100561.72;;;-3.98;66.53
11212;BME280;5663;50.864;12.096;2023-03-01T06:35:27;100566.16;;;-3.90;66.16
11212;BME280;5663;50.864;12.096;2023-03-01T06:37:58;100564.56;;;-3.87;66.43
11212;BME280;5663;50.864;12.096;2023-03-01T06:40:28;100555.16;;;-3.89;66.33
11212;BME280;5663;50.864;12.096;2023-03-01T06:42:57;100540.75;;;-3.89;66.41
11212;BME280;5663;50.864;12.096;2023-03-01T06:45:25;100548.69;;;-3.78;66.34
11212;BME280;5663;50.864;12.096;2023-03-01T06:48:01;100558.91;;;-3.75;66.46
11212;BME280;5663;50.864;12.096;2023-03-01T06:50:30;100546.16;;;-3.77;66.17
11212;BME280;5663;50.864;12.096;2023-03-01T06:52:58;100541.94;;;-3.76;66.59
11212;BME280;5663;50.864;12.096;2023-03-01T06:55:28;100554.97;;;-3.64;66.46
11212;BME280;5663;50.864;12.096;2023-03-01T06:57:56;100544.84;;;-3.62;66.26
11212;BME280;5663;50.864;12.096;2023-03-01T07:00:24;100550.06;;;-3.56;66.14
11212;BME280;5663;50.864;12.096;2023-03-01T07:02:53;100556.00;;;-3.56;66.48
11212;BME280;5663;50.864;12.096;2023-03-01T07:05:21;100557.81;;;-3.52;66.30
11212;BME280;5663;50.864;12.096;2023-03-01T07:07:48;100552.88;;;-3.45;66.38
11212;BME280;5663;50.864;12.096;2023-03-01T07:10:16;100557.22;;;-3.41;66.67
11212;BME280;5663;50.864;12.096;2023-03-01T07:12:46;100553.09;;;-3.36;66.35
11212;BME280;5663;50.864;12.096;2023-03-01T07:15:14;100550.75;;;-3.29;66.52
11212;BME280;5663;50.864;12.096;2023-03-01T07:17:44;100550.19;;;-3.17;66.33
11212;BME280;5663;50.864;12.096;2023-03-01T07:20:13;100547.16;;;-3.01;66.39
11212;BME280;5663;50.864;12.096;2023-03-01T07:22:41;100513.06;;;-3.09;66.23
11212;BME280;5663;50.864;12.096;2023-03-01T07:25:10;100534.03;;;-2.81;66.04
11212;BME280;5663;50.864;12.096;2023-03-01T07:27:38;100545.69;;;-2.52;65.81
11212;BME280;5663;50.864;12.096;2023-03-01T07:30:09;100553.88;;;-2.26;65.66
11212;BME280;5663;50.864;12.096;2023-03-01T07:32:37;100533.50;;;-2.24;65.34
11212;BME280;5663;50.864;12.096;2023-03-01T07:35:05;100531.16;;;-2.15;65.42
11212;BME280;5663;50.864;12.096;2023-03-01T07:37:34;100558.34;;;-1.70;65.08
11212;BME280;5663;50.864;12.096;2023-03-01T07:40:02;100560.19;;;-1.60;64.66
11212;BME280;5663;50.864;12.096;2023-03-01T07:42:30;100552.69;;;-1.52;64.91
11212;BME280;5663;50.864;12.096;2023-03-01T07:44:58;100550.56;;;-1.26;64.92
11212;BME280;5663;50.864;12.096;2023-03-01T07:47:27;100556.06;;;-1.00;64.39
11212;BME280;5663;50.864;12.096;2023-03-01T07:49:55;100556.34;;;-0.83;64.67
11212;BME280;5663;50.864;12.096;2023-03-01T07:52:23;100550.44;;;-0.76;64.39
11212;BME280;5663;50.864;12.096;2023-03-01T07:54:53;100553.00;;;-0.76;64.46
11212;BME280;5663;50.864;12.096;2023-03-01T07:57:20;100546.94;;;-0.84;64.82
11212;BME280;5663;50.864;12.096;2023-03-01T07:59:48;100544.38;;;-0.87;65.40
11212;BME280;5663;50.864;12.096;2023-03-01T08:02:16;100534.09;;;-0.90;65.35
11212;BME280;5663;50.864;12.096;2023-03-01T08:04:45;100536.59;;;-0.93;65.64
11212;BME280;5663;50.864;12.096;2023-03-01T08:07:13;100531.50;;;-0.92;65.85
11212;BME280;5663;50.864;12.096;2023-03-01T08:09:41;100535.81;;;-0.91;66.21
11212;BME280;5663;50.864;12.096;2023-03-01T08:12:09;100535.75;;;-0.92;66.42
11212;BME280;5663;50.864;12.096;2023-03-01T08:14:36;100522.06;;;-0.97;66.58
11212;BME280;5663;50.864;12.096;2023-03-01T08:17:04;100530.63;;;-0.95;66.31
11212;BME280;5663;50.864;12.096;2023-03-01T08:19:33;100530.63;;;-0.95;66.92
11212;BME280;5663;50.864;12.096;2023-03-01T08:22:02;100532.34;;;-0.93;67.11
11212;BME280;5663;50.864;12.096;2023-03-01T08:24:30;100527.31;;;-0.88;67.60
11212;BME280;5663;50.864;12.096;2023-03-01T08:26:58;100534.16;;;-0.84;67.95
11212;BME280;5663;50.864;12.096;2023-03-01T08:29:25;100527.47;;;-0.79;68.25
11212;BME280;5663;50.864;12.096;2023-03-01T08:31:54;100519.00;;;-0.72;68.58
11212;BME280;5663;50.864;12.096;2023-03-01T08:34:22;100511.50;;;-0.63;68.49
11212;BME280;5663;50.864;12.096;2023-03-01T08:36:51;100510.75;;;-0.53;68.64
11212;BME280;5663;50.864;12.096;2023-03-01T08:39:20;100510.84;;;-0.45;68.99
11212;BME280;5663;50.864;12.096;2023-03-01T08:41:50;100502.47;;;-0.33;68.83
11212;BME280;5663;50.864;12.096;2023-03-01T08:44:18;100502.56;;;-0.24;69.17
11212;BME280;5663;50.864;12.096;2023-03-01T08:46:52;100488.97;;;-0.23;68.88
11212;BME280;5663;50.864;12.096;2023-03-01T08:49:22;100498.47;;;-0.11;68.83
11212;BME280;5663;50.864;12.096;2023-03-01T08:51:50;100490.88;;;-0.01;69.24
11212;BME280;5663;50.864;12.096;2023-03-01T08:54:21;100496.13;;;0.09;69.07
11212;BME280;5663;50.864;12.096;2023-03-01T08:56:49;100489.38;;;0.20;68.92
11212;BME280;5663;50.864;12.096;2023-03-01T08:59:17;100486.06;;;0.30;68.66
11212;BME280;5663;50.864;12.096;2023-03-01T09:01:45;100484.44;;;0.40;68.55
11212;BME280;5663;50.864;12.096;2023-03-01T09:04:14;100481.97;;;0.49;68.54
11212;BME280;5663;50.864;12.096;2023-03-01T09:06:42;100476.06;;;0.58;68.25
11212;BME280;5663;50.864;12.096;2023-03-01T09:09:14;100471.84;;;0.64;68.20
11212;BME280;5663;50.864;12.096;2023-03-01T09:11:46;100469.31;;;0.69;68.13
11212;BME280;5663;50.864;12.096;2023-03-01T09:14:16;100465.97;;;0.79;68.18
11212;BME280;5663;50.864;12.096;2023-03-01T09:16:43;100467.72;;;0.86;67.95
11212;BME280;5663;50.864;12.096;2023-03-01T09:19:11;100472.91;;;0.92;67.74
11212;BME280;5663;50.864;12.096;2023-03-01T09:21:39;100471.19;;;0.99;67.80
11212;BME280;5663;50.864;12.096;2023-03-01T09:24:13;100461.00;;;1.01;67.58
11212;BME280;5663;50.864;12.096;2023-03-01T09:26:41;100461.91;;;1.13;67.30
11212;BME280;5663;50.864;12.096;2023-03-01T09:29:11;100450.00;;;1.21;67.13
11212;BME280;5663;50.864;12.096;2023-03-01T09:31:39;100459.41;;;1.30;66.64
11212;BME280;5663;50.864;12.096;2023-03-01T09:34:07;100456.00;;;1.34;66.37
11212;BME280;5663;50.864;12.096;2023-03-01T09:36:36;100459.47;;;1.42;66.33
11212;BME280;5663;50.864;12.096;2023-03-01T09:39:04;100459.50;;;1.50;66.13
11212;BME280;5663;50.864;12.096;2023-03-01T09:41:42;100449.25;;;1.58;66.04
11212;BME280;5663;50.864;12.096;2023-03-01T09:44:20;100457.84;;;1.66;65.89
11212;BME280;5663;50.864;12.096;2023-03-01T09:46:52;100449.28;;;1.70;65.72
11212;BME280;5663;50.864;12.096;2023-03-01T09:49:24;100454.44;;;1.79;65.24
11212;BME280;5663;50.864;12.096;2023-03-01T09:51:58;100445.91;;;1.80;65.07
11212;BME280;5663;50.864;12.096;2023-03-01T09:54:28;100451.91;;;1.90;65.20
11212;BME280;5663;50.864;12.096;2023-03-01T09:57:06;100449.34;;;1.94;64.89
11212;BME280;5663;50.864;12.096;2023-03-01T09:59:52;100456.19;;;1.98;65.04
11212;BME280;5663;50.864;12.096;2023-03-01T10:02:29;100456.22;;;2.08;64.87
11212;BME280;5663;50.864;12.096;2023-03-01T10:05:05;100452.81;;;2.21;65.09
11212;BME280;5663;50.864;12.096;2023-03-01T10:07:44;100454.50;;;2.31;64.88
11212;BME280;5663;50.864;12.096;2023-03-01T10:10:25;100469.03;;;2.35;64.56
11212;BME280;5663;50.864;12.096;2023-03-01T10:12:55;100462.22;;;2.46;64.53
11212;BME280;5663;50.864;12.096;2023-03-01T10:15:32;100454.53;;;2.56;64.17
11212;BME280;5663;50.864;12.096;2023-03-01T10:18:04;100448.53;;;2.60;63.76
11212;BME280;5663;50.864;12.096;2023-03-01T10:20:43;100457.91;;;2.76;63.62
11212;BME280;5663;50.864;12.096;2023-03-01T10:23:14;100451.06;;;2.87;63.61
11212;BME280;5663;50.864;12.096;2023-03-01T10:25:49;100404.81;;;2.75;63.20
11212;BME280;5663;50.864;12.096;2023-03-01T10:28:25;100442.41;;;3.16;62.99
11212;BME280;5663;50.864;12.096;2023-03-01T10:30:59;100443.22;;;3.29;62.95
11212;BME280;5663;50.864;12.096;2023-03-01T10:33:29;100431.19;;;3.32;62.69
11212;BME280;5663;50.864;12.096;2023-03-01T10:35:58;100429.47;;;3.36;62.37
11212;BME280;5663;50.864;12.096;2023-03-01T10:38:26;100425.97;;;3.43;62.17
11212;BME280;5663;50.864;12.096;2023-03-01T10:40:59;100426.81;;;3.50;62.31
11212;BME280;5663;50.864;12.096;2023-03-01T10:43:32;100428.50;;;3.57;62.23
11212;BME280;5663;50.864;12.096;2023-03-01T10:46:23;100413.94;;;3.53;61.43
11212;BME280;5663;50.864;12.096;2023-03-01T10:49:06;100419.91;;;3.64;62.33
11212;BME280;5663;50.864;12.096;2023-03-01T10:51:35;100413.88;;;3.66;62.27
11212;BME280;5663;50.864;12.096;2023-03-01T10:54:04;100415.56;;;3.69;61.63
11212;BME280;5663;50.864;12.096;2023-03-01T10:56:46;100394.25;;;3.52;61.12
11212;BME280;5663;50.864;12.096;2023-03-01T10:59:24;100402.72;;;3.66;61.45
11212;BME280;5663;50.864;12.096;2023-03-01T11:02:16;100400.09;;;3.80;61.29
11212;BME280;5663;50.864;12.096;2023-03-01T11:04:59;100400.91;;;3.83;60.19
11212;BME280;5663;50.864;12.096;2023-03-01T11:07:28;100402.56;;;3.90;61.06
11212;BME280;5663;50.864;12.096;2023-03-01T11:09:59;100405.91;;;4.02;60.77
11212;BME280;5663;50.864;12.096;2023-03-01T11:12:27;100406.66;;;4.14;60.26
11212;BME280;5663;50.864;12.096;2023-03-01T11:14:56;100401.47;;;4.22;60.50
11212;BME280;5663;50.864;12.096;2023-03-01T11:17:29;100404.75;;;4.38;59.62
11212;BME280;5663;50.864;12.096;2023-03-01T11:20:02;100396.88;;;4.55;59.78
11212;BME280;5663;50.864;12.096;2023-03-01T11:22:32;100383.13;;;4.56;59.57
11212;BME280;5663;50.864;12.096;2023-03-01T11:25:03;100393.28;;;4.71;59.13
11212;BME280;5663;50.864;12.096;2023-03-01T11:27:36;100388.06;;;4.77;59.32
11212;BME280;5663;50.864;12.096;2023-03-01T11:30:13;100387.19;;;4.78;58.92
11212;BME280;5663;50.864;12.096;2023-03-01T11:32:49;100384.47;;;4.90;58.51
11212;BME280;5663;50.864;12.096;2023-03-01T11:35:24;100377.50;;;4.99;58.65
11212;BME280;5663;50.864;12.096;2023-03-01T11:37:59;100378.28;;;5.07;58.83
11212;BME280;5663;50.864;12.096;2023-03-01T11:40:34;100371.25;;;5.18;59.00
11212;BME280;5663;50.864;12.096;2023-03-01T11:43:09;100373.72;;;5.27;57.92
11212;BME280;5663;50.864;12.096;2023-03-01T11:45:47;100366.66;;;5.38;57.60
11212;BME280;5663;50.864;12.096;2023-03-01T11:48:41;100368.13;;;5.58;57.00
11212;BME280;5663;50.864;12.096;2023-03-01T11:51:18;100383.50;;;5.65;56.79
11212;BME280;5663;50.864;12.096;2023-03-01T11:54:01;100376.53;;;5.72;56.89
11212;BME280;5663;50.864;12.096;2023-03-01T11:56:38;100364.41;;;5.77;55.94
11212;BME280;5663;50.864;12.096;2023-03-01T11:59:24;100369.56;;;5.77;55.69
11212;BME280;5663;50.864;12.096;2023-03-01T12:02:12;100326.81;;;5.61;56.03
11212;BME280;5663;50.864;12.096;2023-03-01T12:04:58;100375.28;;;5.98;55.66
11212;BME280;5663;50.864;12.096;2023-03-01T12:07:35;100359.72;;;6.04;55.62
11212;BME280;5663;50.864;12.096;2023-03-01T12:10:42;100365.53;;;6.16;54.64
11212;BME280;5663;50.864;12.096;2023-03-01T12:16:26;100357.53;;;6.32;54.27
11212;BME280;5663;50.864;12.096;2023-03-01T12:19:07;100351.50;;;6.31;54.56
11212;BME280;5663;50.864;12.096;2023-03-01T12:21:55;100352.31;;;6.33;54.55
11212;BME280;5663;50.864;12.096;2023-03-01T12:27:55;100329.00;;;6.36;54.18
11212;BME280;5663;50.864;12.096;2023-03-01T12:30:35;100325.50;;;6.40;53.18
11212;BME280;5663;50.864;12.096;2023-03-01T12:33:17;100328.22;;;6.34;52.47
11212;BME280;5663;50.864;12.096;2023-03-01T12:35:58;100328.13;;;6.39;53.08
11212;BME280;5663;50.864;12.096;2023-03-01T12:38:39;100319.47;;;6.40;53.46
11212;BME280;5663;50.864;12.096;2023-03-01T12:41:35;100321.22;;;6.39;52.06
11212;BME280;5663;50.864;12.096;2023-03-01T12:44:14;100310.09;;;6.36;52.15
11212;BME280;5663;50.864;12.096;2023-03-01T12:46:52;100311.09;;;6.27;52.79
11212;BME280;5663;50.864;12.096;2023-03-01T12:49:28;100305.00;;;6.31;53.03
11212;BME280;5663;50.864;12.096;2023-03-01T12:52:01;100299.75;;;6.36;53.09
11212;BME280;5663;50.864;12.096;2023-03-01T12:54:33;100291.94;;;6.39;53.30
11212;BME280;5663;50.864;12.096;2023-03-01T12:57:11;100299.56;;;6.47;53.18
11212;BME280;5663;50.864;12.096;2023-03-01T12:59:47;100301.25;;;6.48;52.85
11212;BME280;5663;50.864;12.096;2023-03-01T13:02:23;100302.94;;;6.49;52.71
11212;BME280;5663;50.864;12.096;2023-03-01T13:05:03;100294.25;;;6.53;52.36
11212;BME280;5663;50.864;12.096;2023-03-01T13:07:41;100299.22;;;6.62;51.64
11212;BME280;5663;50.864;12.096;2023-03-01T13:10:21;100293.06;;;6.71;52.49
11212;BME280;5663;50.864;12.096;2023-03-01T13:13:02;100239.19;;;6.51;51.43
11212;BME280;5663;50.864;12.096;2023-03-01T13:15:32;100308.41;;;6.78;51.24
11212;BME280;5663;50.864;12.096;2023-03-01T13:18:03;100296.41;;;6.74;51.40
11212;BME280;5663;50.864;12.096;2023-03-01T13:20:33;100292.13;;;6.75;51.65
11212;BME280;5663;50.864;12.096;2023-03-01T13:23:06;100282.63;;;6.74;51.13
11212;BME280;5663;50.864;12.096;2023-03-01T13:26:06;100290.16;;;6.84;51.01
11212;BME280;5663;50.864;12.096;2023-03-01T13:28:59;100285.03;;;6.83;50.79